createdAt,value
2022-12-31T00:01:23.874Z,77.50
2022-12-31T00:03:52.546Z,77.65
2022-12-31T00:06:27.076Z,77.88
2022-12-31T00:08:57.312Z,77.81
2022-12-31T00:11:27.130Z,77.95
2022-12-31T00:13:56.226Z,77.72
2022-12-31T00:16:27.492Z,77.62
2022-12-31T00:18:59.449Z,77.65
2022-12-31T00:21:30.499Z,77.82
2022-12-31T00:23:58.759Z,77.85
2022-12-31T00:26:30.043Z,77.98
2022-12-31T00:29:00.047Z,77.80
2022-12-31T00:31:33.809Z,77.63
2022-12-31T00:34:02.383Z,77.46
2022-12-31T00:36:36.390Z,77.40
2022-12-31T00:39:06.768Z,77.43
2022-12-31T00:41:35.121Z,77.60
2022-12-31T00:44:03.320Z,77.45
2022-12-31T00:46:32.086Z,77.46
2022-12-31T00:49:00.199Z,77.34
2022-12-31T00:51:28.703Z,77.26
2022-12-31T00:53:57.598Z,77.30
2022-12-31T00:56:28.463Z,77.24
2022-12-31T00:58:57.629Z,77.25
2022-12-31T01:01:27.205Z,77.31
2022-12-31T01:03:59.922Z,77.38
2022-12-31T01:06:28.060Z,77.37
2022-12-31T01:08:56.123Z,77.54
2022-12-31T01:11:24.719Z,77.40
2022-12-31T01:14:02.231Z,77.08
2022-12-31T01:16:30.209Z,77.37
2022-12-31T01:19:00.540Z,77.75
2022-12-31T01:21:29.389Z,77.51
2022-12-31T01:23:59.228Z,77.79
2022-12-31T01:26:28.029Z,77.64
2022-12-31T01:28:56.832Z,77.60
2022-12-31T01:31:26.021Z,77.66
2022-12-31T01:33:54.709Z,77.46
2022-12-31T01:36:26.633Z,77.24
2022-12-31T01:38:57.501Z,77.59
2022-12-31T01:41:31.381Z,77.53
2022-12-31T01:44:24.420Z,77.50
2022-12-31T01:46:56.738Z,77.44
2022-12-31T01:49:45.595Z,77.52
2022-12-31T01:52:17.448Z,77.48
2022-12-31T01:54:49.814Z,77.25
2022-12-31T01:57:18.403Z,77.01
2022-12-31T01:59:46.869Z,77.22
2022-12-31T02:02:16.068Z,77.24
2022-12-31T02:04:44.262Z,77.22
2022-12-31T02:07:12.908Z,77.24
2022-12-31T02:09:42.438Z,77.19
2022-12-31T02:12:11.093Z,77.11
2022-12-31T02:14:50.833Z,76.87
2022-12-31T02:17:25.082Z,76.86
2022-12-31T02:20:05.486Z,77.12
2022-12-31T02:23:10.998Z,77.13
2022-12-31T02:25:39.026Z,77.20
2022-12-31T02:28:28.891Z,77.21
2022-12-31T02:31:07.605Z,77.11
2022-12-31T02:33:46.624Z,77.06
2022-12-31T02:36:28.209Z,76.72
2022-12-31T02:38:56.761Z,76.87
2022-12-31T02:41:43.164Z,77.08
2022-12-31T02:44:33.320Z,76.92
2022-12-31T02:47:10.724Z,77.01
2022-12-31T02:49:57.575Z,76.96
2022-12-31T02:52:47.056Z,76.89
2022-12-31T02:55:53.652Z,76.75
2022-12-31T02:59:17.252Z,76.69
2022-12-31T03:02:09.042Z,76.78
2022-12-31T03:04:38.363Z,76.79
2022-12-31T03:07:26.612Z,76.92
2022-12-31T03:09:55.211Z,76.93
2022-12-31T03:12:46.183Z,76.74
2022-12-31T03:15:28.233Z,76.79
2022-12-31T03:17:56.107Z,76.91
2022-12-31T03:20:54.401Z,76.62
2022-12-31T03:23:31.976Z,76.71
2022-12-31T03:26:00.664Z,76.90
2022-12-31T03:28:31.015Z,76.89
2022-12-31T03:31:01.842Z,76.94
2022-12-31T03:33:36.542Z,76.97
2022-12-31T03:36:07.682Z,76.93
2022-12-31T03:38:36.450Z,76.92
2022-12-31T03:41:04.583Z,76.72
2022-12-31T03:43:32.620Z,76.73
2022-12-31T03:46:01.810Z,76.83
2022-12-31T03:48:29.980Z,76.89
2022-12-31T03:50:57.931Z,77.00
2022-12-31T03:53:26.008Z,76.85
2022-12-31T03:55:54.723Z,76.83
2022-12-31T03:58:22.996Z,76.72
2022-12-31T04:00:51.376Z,76.62
2022-12-31T04:03:19.490Z,76.44
2022-12-31T04:05:53.856Z,76.65
2022-12-31T04:08:22.362Z,76.74
2022-12-31T04:10:50.625Z,76.84
2022-12-31T04:13:18.623Z,76.88
2022-12-31T04:15:50.121Z,76.62
2022-12-31T04:18:18.088Z,76.74
2022-12-31T04:20:46.077Z,76.56
2022-12-31T04:23:14.093Z,76.73
2022-12-31T04:25:42.043Z,76.62
2022-12-31T04:28:10.987Z,76.75
2022-12-31T04:30:40.100Z,76.77
2022-12-31T04:33:08.137Z,76.77
2022-12-31T04:35:36.293Z,76.77
2022-12-31T04:38:04.428Z,76.94
2022-12-31T04:40:32.446Z,76.68
2022-12-31T04:43:00.487Z,76.51
2022-12-31T04:45:28.494Z,76.99
2022-12-31T04:47:56.481Z,76.93
2022-12-31T04:50:24.505Z,77.08
2022-12-31T04:52:52.499Z,76.95
2022-12-31T04:55:20.471Z,76.92
2022-12-31T04:57:48.536Z,76.97
2022-12-31T05:00:16.656Z,76.91
2022-12-31T05:02:44.707Z,76.57
2022-12-31T05:05:12.929Z,76.69
2022-12-31T05:07:40.935Z,76.97
2022-12-31T05:10:09.056Z,76.97
2022-12-31T05:12:37.025Z,77.00
2022-12-31T05:15:06.534Z,76.98
2022-12-31T05:17:34.574Z,77.03
2022-12-31T05:20:02.580Z,77.00
2022-12-31T05:22:30.707Z,76.98
2022-12-31T05:25:00.313Z,76.47
2022-12-31T05:27:31.416Z,76.71
2022-12-31T05:30:00.237Z,76.81
2022-12-31T05:32:28.612Z,76.97
2022-12-31T05:34:58.235Z,76.96
2022-12-31T05:37:29.858Z,77.04
2022-12-31T05:39:58.092Z,77.03
2022-12-31T05:42:27.001Z,76.87
2022-12-31T05:44:55.022Z,76.75
2022-12-31T05:47:23.545Z,76.46
2022-12-31T05:49:51.578Z,76.79
2022-12-31T05:52:20.184Z,76.73
2022-12-31T05:54:48.180Z,76.89
2022-12-31T05:57:16.292Z,76.82
2022-12-31T05:59:44.327Z,76.52
2022-12-31T06:02:12.379Z,76.73
2022-12-31T06:04:40.444Z,76.43
2022-12-31T06:07:08.808Z,76.52
2022-12-31T06:09:36.855Z,76.35
2022-12-31T06:12:06.765Z,76.82
2022-12-31T06:14:35.346Z,76.79
2022-12-31T06:17:03.675Z,76.84
2022-12-31T06:19:31.675Z,76.69
2022-12-31T06:21:59.742Z,76.38
2022-12-31T06:24:27.769Z,76.73
2022-12-31T06:26:55.762Z,76.36
2022-12-31T06:29:23.763Z,76.48
2022-12-31T06:31:51.764Z,76.28
2022-12-31T06:34:19.920Z,76.27
2022-12-31T06:36:48.076Z,76.61
2022-12-31T06:39:16.088Z,76.25
2022-12-31T06:41:44.111Z,76.18
2022-12-31T06:44:12.301Z,76.11
2022-12-31T06:46:40.493Z,76.21
2022-12-31T06:49:08.514Z,76.15
2022-12-31T06:51:36.712Z,75.76
2022-12-31T06:54:04.673Z,76.24
2022-12-31T06:56:34.669Z,76.24
2022-12-31T06:59:04.004Z,76.10
2022-12-31T07:01:58.050Z,76.38
2022-12-31T07:04:38.729Z,76.02
2022-12-31T07:07:17.208Z,76.04
2022-12-31T07:10:00.233Z,76.16
2022-12-31T07:13:01.550Z,75.90
2022-12-31T07:16:11.968Z,75.63
2022-12-31T07:19:11.284Z,76.10
2022-12-31T07:21:41.869Z,76.15
2022-12-31T07:24:11.399Z,76.05
2022-12-31T07:27:19.482Z,76.23
2022-12-31T07:30:02.092Z,76.04
2022-12-31T07:33:03.989Z,75.89
2022-12-31T07:35:41.128Z,76.12
2022-12-31T07:38:20.954Z,76.25
2022-12-31T07:40:59.159Z,76.26
2022-12-31T07:43:38.056Z,76.09
2022-12-31T07:46:40.232Z,76.19
2022-12-31T07:49:11.432Z,76.33
2022-12-31T07:51:40.260Z,76.19
2022-12-31T07:54:13.614Z,76.66
2022-12-31T07:56:44.192Z,76.36
2022-12-31T07:59:30.724Z,76.55
2022-12-31T08:02:13.865Z,76.29
2022-12-31T08:05:02.222Z,76.23
2022-12-31T08:07:47.505Z,76.28
2022-12-31T08:10:28.064Z,76.24
2022-12-31T08:13:01.262Z,76.29
2022-12-31T08:15:30.675Z,75.80
2022-12-31T08:17:59.303Z,76.15
2022-12-31T08:20:29.696Z,76.01
2022-12-31T08:23:24.679Z,75.80
2022-12-31T08:25:55.422Z,75.49
2022-12-31T08:28:29.586Z,75.58
2022-12-31T08:31:16.535Z,75.95
2022-12-31T08:34:06.188Z,75.76
2022-12-31T08:36:49.666Z,75.83
2022-12-31T08:39:23.436Z,75.85
2022-12-31T08:41:57.672Z,75.96
2022-12-31T08:44:46.039Z,75.71
2022-12-31T08:47:38.593Z,75.63
2022-12-31T08:50:13.183Z,75.45
2022-12-31T08:52:41.491Z,75.34
2022-12-31T08:55:16.719Z,75.74
2022-12-31T08:58:05.074Z,75.60
2022-12-31T09:00:34.600Z,75.75
2022-12-31T09:03:32.071Z,75.69
2022-12-31T09:06:08.969Z,75.43
2022-12-31T09:08:49.354Z,75.68
2022-12-31T09:11:30.010Z,75.81
2022-12-31T09:14:36.847Z,75.40
2022-12-31T09:17:31.694Z,75.42
2022-12-31T09:19:59.986Z,75.68
2022-12-31T09:22:28.759Z,75.57
2022-12-31T09:24:57.134Z,75.72
2022-12-31T09:27:48.785Z,75.78
2022-12-31T09:30:18.852Z,75.67
2022-12-31T09:33:12.750Z,75.85
2022-12-31T09:35:56.924Z,75.18
2022-12-31T09:38:55.173Z,75.27
2022-12-31T09:41:47.716Z,75.37
2022-12-31T09:44:28.798Z,75.28
2022-12-31T09:47:28.914Z,75.21
2022-12-31T09:50:21.310Z,75.22
2022-12-31T09:52:55.140Z,75.23
2022-12-31T09:55:42.026Z,75.03
2022-12-31T09:58:23.762Z,74.80
2022-12-31T10:01:21.092Z,74.74
2022-12-31T10:04:13.873Z,74.85
2022-12-31T10:06:41.826Z,74.70
2022-12-31T10:09:25.163Z,74.35
2022-12-31T10:12:02.300Z,74.58
2022-12-31T10:14:52.071Z,74.27
2022-12-31T10:17:44.428Z,74.17
2022-12-31T10:20:45.084Z,73.76
2022-12-31T10:23:21.081Z,74.16
2022-12-31T10:26:12.068Z,74.09
2022-12-31T10:28:56.117Z,73.92
2022-12-31T10:31:36.359Z,74.10
2022-12-31T10:34:41.024Z,74.15
2022-12-31T10:37:21.500Z,74.03
2022-12-31T10:40:17.774Z,74.04
2022-12-31T10:43:36.753Z,74.11
2022-12-31T10:46:35.697Z,73.92
2022-12-31T10:49:34.701Z,73.84
2022-12-31T10:52:17.829Z,73.81
2022-12-31T10:55:16.753Z,73.89
2022-12-31T10:58:04.509Z,73.69
2022-12-31T11:00:57.914Z,73.65
2022-12-31T11:04:04.924Z,73.55
2022-12-31T11:07:14.292Z,73.12
2022-12-31T11:09:57.223Z,73.05
2022-12-31T11:12:47.468Z,73.06
2022-12-31T11:15:21.703Z,73.00
2022-12-31T11:18:11.391Z,73.06
2022-12-31T11:20:58.411Z,73.03
2022-12-31T11:23:37.226Z,73.06
2022-12-31T11:26:46.917Z,72.90
2022-12-31T11:29:54.053Z,72.86
2022-12-31T11:32:22.030Z,72.76
2022-12-31T11:35:15.925Z,72.82
2022-12-31T11:37:58.334Z,72.83
2022-12-31T11:40:42.170Z,72.99
2022-12-31T11:43:23.764Z,72.88
2022-12-31T11:46:13.293Z,72.83
2022-12-31T11:49:19.241Z,72.91
2022-12-31T11:52:08.113Z,73.01
2022-12-31T11:54:53.945Z,72.93
2022-12-31T11:57:27.541Z,72.74
2022-12-31T12:00:22.985Z,72.99
2022-12-31T12:03:00.867Z,73.02
2022-12-31T12:05:30.164Z,73.03
2022-12-31T12:07:58.438Z,73.07
2022-12-31T12:10:36.547Z,72.93
2022-12-31T12:13:34.741Z,72.83
2022-12-31T12:16:07.560Z,73.01
2022-12-31T12:18:45.984Z,72.74
2022-12-31T12:21:25.440Z,72.57
2022-12-31T12:24:26.381Z,72.71
2022-12-31T12:26:57.916Z,72.71
2022-12-31T12:29:35.871Z,72.65
2022-12-31T12:32:16.327Z,72.54
2022-12-31T12:34:49.641Z,72.50
2022-12-31T12:37:27.189Z,72.46
2022-12-31T12:40:01.099Z,72.63
2022-12-31T12:42:30.044Z,72.48
2022-12-31T12:45:03.519Z,72.27
2022-12-31T12:47:32.179Z,72.29
2022-12-31T12:50:01.092Z,72.36
2022-12-31T12:52:59.208Z,72.43
2022-12-31T12:55:41.063Z,72.43
2022-12-31T12:58:44.650Z,72.59
2022-12-31T13:01:51.539Z,72.44
2022-12-31T13:04:46.643Z,72.37
2022-12-31T13:07:33.458Z,72.43
2022-12-31T13:10:07.472Z,72.38
2022-12-31T13:16:11.331Z,72.29
2022-12-31T13:18:53.723Z,72.40
2022-12-31T13:21:21.775Z,72.46
2022-12-31T13:24:14.119Z,72.49
2022-12-31T13:26:50.689Z,72.47
2022-12-31T13:29:23.017Z,72.48
2022-12-31T13:31:52.985Z,72.61
2022-12-31T13:34:42.608Z,72.78
2022-12-31T13:37:41.444Z,72.64
2022-12-31T13:40:25.037Z,72.47
2022-12-31T13:43:13.320Z,72.47
2022-12-31T13:45:44.771Z,72.82
2022-12-31T13:48:30.515Z,72.77
2022-12-31T13:51:06.094Z,72.79
2022-12-31T13:53:43.888Z,72.83
2022-12-31T13:56:19.948Z,72.87
2022-12-31T13:59:16.921Z,72.80
2022-12-31T14:01:54.040Z,72.80
2022-12-31T14:04:33.618Z,72.83
2022-12-31T14:07:13.910Z,72.64
2022-12-31T14:09:42.677Z,72.73
2022-12-31T14:12:13.630Z,72.94
2022-12-31T14:15:18.029Z,72.94
2022-12-31T14:18:09.987Z,73.04
2022-12-31T14:20:48.395Z,73.01
2022-12-31T14:23:25.990Z,72.91
2022-12-31T14:26:28.677Z,73.08
2022-12-31T14:29:08.783Z,73.09
2022-12-31T14:31:49.209Z,73.04
2022-12-31T14:34:39.377Z,73.08
2022-12-31T14:37:38.731Z,73.29
2022-12-31T14:40:12.826Z,73.35
2022-12-31T14:43:02.563Z,73.36
2022-12-31T14:45:56.068Z,73.43
2022-12-31T14:49:12.445Z,73.47
2022-12-31T14:51:40.518Z,73.66
2022-12-31T14:54:29.429Z,73.55
2022-12-31T14:56:57.533Z,73.62
2022-12-31T14:59:33.335Z,73.70
2022-12-31T15:02:34.988Z,73.98
2022-12-31T15:05:12.579Z,74.16
2022-12-31T15:07:43.449Z,74.10
2022-12-31T15:10:33.317Z,74.15
2022-12-31T15:13:20.972Z,74.16
2022-12-31T15:16:15.284Z,74.05
2022-12-31T15:19:05.119Z,74.01
2022-12-31T15:21:45.085Z,74.23
2022-12-31T15:24:31.728Z,74.64
2022-12-31T15:27:03.171Z,74.49
2022-12-31T15:29:34.173Z,74.30
2022-12-31T15:32:08.102Z,74.36
2022-12-31T15:34:36.978Z,74.66
2022-12-31T15:37:27.221Z,74.48
2022-12-31T15:40:25.469Z,74.45
2022-12-31T15:43:10.013Z,74.34
2022-12-31T15:45:39.728Z,74.31
2022-12-31T15:48:18.327Z,74.57
2022-12-31T15:50:47.669Z,74.45
2022-12-31T15:53:40.438Z,74.71
2022-12-31T15:56:18.989Z,74.57
2022-12-31T15:58:50.145Z,74.64
2022-12-31T16:01:30.793Z,74.66
2022-12-31T16:04:05.781Z,74.63
2022-12-31T16:06:38.601Z,74.64
2022-12-31T16:09:10.721Z,74.83
2022-12-31T16:11:42.850Z,74.84
2022-12-31T16:14:23.093Z,74.91
2022-12-31T16:16:55.544Z,74.84
2022-12-31T16:19:32.452Z,75.08
2022-12-31T16:22:13.576Z,74.98
2022-12-31T16:25:19.373Z,74.72
2022-12-31T16:27:31.691Z,74.94
2022-12-31T16:30:18.753Z,75.03
2022-12-31T16:32:50.091Z,75.09
2022-12-31T16:35:31.265Z,75.29
2022-12-31T16:38:08.855Z,75.32
2022-12-31T16:40:36.974Z,75.28
2022-12-31T16:43:18.524Z,75.32
2022-12-31T16:45:46.789Z,75.20
2022-12-31T16:48:17.871Z,75.36
2022-12-31T16:50:51.022Z,75.61
2022-12-31T16:53:22.554Z,75.73
2022-12-31T16:55:56.896Z,75.91
2022-12-31T16:58:37.862Z,75.82
2022-12-31T17:01:23.456Z,75.66
2022-12-31T17:03:59.630Z,75.61
2022-12-31T17:06:33.614Z,75.70
2022-12-31T17:09:14.018Z,75.88
2022-12-31T17:11:43.518Z,75.99
2022-12-31T17:14:14.125Z,75.80
2022-12-31T17:17:04.254Z,75.73
2022-12-31T17:19:35.290Z,75.72
2022-12-31T17:22:13.265Z,75.54
2022-12-31T17:24:41.762Z,75.28
2022-12-31T17:27:10.658Z,75.54
2022-12-31T17:29:38.680Z,75.50
2022-12-31T17:32:30.082Z,75.53
2022-12-31T17:34:58.190Z,75.36
2022-12-31T17:37:30.886Z,75.25
2022-12-31T17:40:32.273Z,75.19
2022-12-31T17:42:49.849Z,75.15
2022-12-31T17:45:22.482Z,75.18
2022-12-31T17:47:53.878Z,75.13
2022-12-31T17:50:24.888Z,75.09
2022-12-31T17:53:09.711Z,75.13
2022-12-31T17:55:38.039Z,74.82
2022-12-31T17:58:06.931Z,74.92
2022-12-31T18:00:37.073Z,74.92
2022-12-31T18:03:05.115Z,75.02
2022-12-31T18:05:33.227Z,74.94
2022-12-31T18:08:01.265Z,75.07
2022-12-31T18:10:33.135Z,75.04
2022-12-31T18:13:02.494Z,74.97
2022-12-31T18:15:31.305Z,75.07
2022-12-31T18:17:59.480Z,74.74
2022-12-31T18:20:27.902Z,74.93
2022-12-31T18:22:56.069Z,75.02
2022-12-31T18:25:24.424Z,74.91
2022-12-31T18:27:52.898Z,74.87
2022-12-31T18:30:20.908Z,74.93
2022-12-31T18:32:49.072Z,75.02
2022-12-31T18:35:57.587Z,74.81
2022-12-31T18:38:14.257Z,74.77
2022-12-31T18:40:46.807Z,74.89
2022-12-31T18:43:17.600Z,74.81
2022-12-31T18:45:47.646Z,74.92
2022-12-31T18:48:16.717Z,74.94
2022-12-31T18:50:45.788Z,75.11
2022-12-31T18:53:20.342Z,75.00
2022-12-31T18:55:54.274Z,74.84
2022-12-31T18:58:22.722Z,74.83
2022-12-31T19:00:51.748Z,74.90
2022-12-31T19:03:23.342Z,74.78
2022-12-31T19:05:52.155Z,75.00
2022-12-31T19:08:22.392Z,74.86
2022-12-31T19:10:52.278Z,74.94
2022-12-31T19:13:21.165Z,74.94
2022-12-31T19:15:55.692Z,75.04
2022-12-31T19:18:23.799Z,74.73
2022-12-31T19:20:52.483Z,74.63
2022-12-31T19:23:22.518Z,74.93
2022-12-31T19:25:50.616Z,74.85
2022-12-31T19:28:20.288Z,74.94
2022-12-31T19:30:48.611Z,74.93
2022-12-31T19:33:17.255Z,74.91
2022-12-31T19:35:46.304Z,74.82
2022-12-31T19:38:23.407Z,74.68
2022-12-31T19:40:52.898Z,74.61
2022-12-31T19:43:23.134Z,74.76
2022-12-31T19:45:52.122Z,74.75
2022-12-31T19:48:28.576Z,74.87
2022-12-31T19:51:00.373Z,74.74
2022-12-31T19:53:28.992Z,74.59
2022-12-31T19:55:57.019Z,74.71
2022-12-31T19:58:26.791Z,74.69
2022-12-31T20:01:02.480Z,74.55
2022-12-31T20:03:33.370Z,74.43
2022-12-31T20:06:02.889Z,74.65
2022-12-31T20:08:31.008Z,74.49
2022-12-31T20:10:59.123Z,74.61
2022-12-31T20:13:27.636Z,74.61
2022-12-31T20:15:55.661Z,74.58
2022-12-31T20:18:25.013Z,74.53
2022-12-31T20:20:56.018Z,74.32
2022-12-31T20:23:24.310Z,74.25
2022-12-31T20:26:00.269Z,74.42
2022-12-31T20:28:28.837Z,74.41
2022-12-31T20:30:56.917Z,74.46
2022-12-31T20:33:25.001Z,74.35
2022-12-31T20:35:53.067Z,74.31
2022-12-31T20:38:21.192Z,74.21
2022-12-31T20:40:49.624Z,74.12
2022-12-31T20:43:17.659Z,74.25
2022-12-31T20:45:45.770Z,74.22
2022-12-31T20:48:13.811Z,74.38
2022-12-31T20:50:43.157Z,74.28
2022-12-31T20:53:11.161Z,74.13
2022-12-31T20:55:39.187Z,74.18
2022-12-31T20:58:07.289Z,74.30
2022-12-31T21:00:35.279Z,74.20
2022-12-31T21:03:14.195Z,74.06
2022-12-31T21:05:51.857Z,74.08
2022-12-31T21:08:20.958Z,74.10
2022-12-31T21:10:51.089Z,74.07
2022-12-31T21:13:23.221Z,74.20
2022-12-31T21:15:55.005Z,74.12
2022-12-31T21:18:24.072Z,74.20
2022-12-31T21:20:53.939Z,74.28
2022-12-31T21:23:22.990Z,74.11
2022-12-31T21:25:51.021Z,73.99
2022-12-31T21:28:19.217Z,74.00
2022-12-31T21:30:47.320Z,74.16
2022-12-31T21:33:15.367Z,74.21
2022-12-31T21:35:48.670Z,74.15
2022-12-31T21:38:21.508Z,74.07
2022-12-31T21:40:53.090Z,74.08
2022-12-31T21:43:21.146Z,74.14
2022-12-31T21:46:00.722Z,74.20
2022-12-31T21:48:28.865Z,74.06
2022-12-31T21:51:07.993Z,74.06
2022-12-31T21:53:37.385Z,74.02
2022-12-31T21:56:09.586Z,73.97
2022-12-31T21:58:39.429Z,74.06
2022-12-31T22:01:26.530Z,74.00
2022-12-31T22:03:54.699Z,73.97
2022-12-31T22:06:24.399Z,73.98
2022-12-31T22:08:55.296Z,73.83
2022-12-31T22:11:26.525Z,73.94
2022-12-31T22:13:55.524Z,73.96
2022-12-31T22:16:23.725Z,73.70
2022-12-31T22:18:55.055Z,73.79
2022-12-31T22:21:25.605Z,73.75
2022-12-31T22:23:56.554Z,73.79
2022-12-31T22:26:27.629Z,73.78
2022-12-31T22:28:59.866Z,73.76
2022-12-31T22:31:32.320Z,73.65
2022-12-31T22:34:00.413Z,73.65
2022-12-31T22:36:28.425Z,73.71
2022-12-31T22:38:58.557Z,73.56
2022-12-31T22:41:27.975Z,73.40
2022-12-31T22:44:05.821Z,73.47
2022-12-31T22:46:35.471Z,73.56
2022-12-31T22:49:04.861Z,73.70
2022-12-31T22:51:55.849Z,73.51
2022-12-31T22:54:21.527Z,73.59
2022-12-31T22:56:49.694Z,73.52
2022-12-31T22:59:17.763Z,73.42
2022-12-31T23:01:45.897Z,73.63
2022-12-31T23:04:14.027Z,73.60
2022-12-31T23:06:45.432Z,73.44
2022-12-31T23:09:34.542Z,73.41
2022-12-31T23:12:04.689Z,73.45
2022-12-31T23:14:52.275Z,73.58
2022-12-31T23:17:44.717Z,73.43
2022-12-31T23:20:37.549Z,73.43
2022-12-31T23:23:10.081Z,73.49
2022-12-31T23:25:47.982Z,73.37
2022-12-31T23:28:24.660Z,73.29
2022-12-31T23:30:53.214Z,73.24
2022-12-31T23:33:24.617Z,73.18
2022-12-31T23:36:06.641Z,73.16
2022-12-31T23:38:41.536Z,73.24
2022-12-31T23:41:14.668Z,73.32
2022-12-31T23:43:43.929Z,73.30
2022-12-31T23:46:12.848Z,73.26
2022-12-31T23:48:40.945Z,73.19
2022-12-31T23:51:09.306Z,73.20
2022-12-31T23:53:38.723Z,73.19
2022-12-31T23:56:13.904Z,73.19
2022-12-31T23:58:46.079Z,73.12
